sensor_id;sensor_type;location;lat;lon;timestamp;pressure;altitude;pressure_sealevel;temperature;humidity
32789;BME280;19141;48.980;8.410;2023-08-31T04:22:33;99822.94;;;13.47;100.00
32789;BME280;19141;48.980;8.410;2023-08-31T04:24:59;99825.22;;;13.50;100.00
32789;BME280;19141;48.980;8.410;2023-08-31T04:27:24;99822.34;;;13.51;100.00
32789;BME280;19141;48.980;8.410;2023-08-31T04:29:50;99820.06;;;13.55;100.00
32789;BME280;19141;48.980;8.410;2023-08-31T04:32:15;99828.75;;;13.57;100.00
32789;BME280;19141;48.980;8.410;2023-08-31T04:34:40;99828.53;;;13.58;100.00
32789;BME280;19141;48.980;8.410;2023-08-31T04:37:06;99832.63;;;13.61;100.00
32789;BME280;19141;48.980;8.410;2023-08-31T04:39:31;99827.28;;;13.61;100.00
32789;BME280;19141;48.980;8.410;2023-08-31T04:41:56;99828.75;;;13.64;100.00
32789;BME280;19141;48.980;8.410;2023-08-31T04:44:22;99832.84;;;13.66;100.00
32789;BME280;19141;48.980;8.410;2023-08-31T04:46:47;99826.47;;;13.67;100.00
32789;BME280;19141;48.980;8.410;2023-08-31T04:49:13;99830.63;;;13.70;100.00
32789;BME280;19141;48.980;8.410;2023-08-31T04:51:38;99833.91;;;13.72;100.00
32789;BME280;19141;48.980;8.410;2023-08-31T04:54:05;99825.66;;;13.73;100.00
32789;BME280;19141;48.980;8.410;2023-08-31T04:56:32;99825.44;;;13.75;100.00
32789;BME280;19141;48.980;8.410;2023-08-31T04:58:58;99829.81;;;13.76;100.00
32789;BME280;19141;48.980;8.410;2023-08-31T05:01:24;99832.88;;;13.79;100.00
32789;BME280;19141;48.980;8.410;2023-08-31T05:03:50;99839.06;;;13.80;100.00
32789;BME280;19141;48.980;8.410;2023-08-31T05:06:15;99843.38;;;13.81;100.00
32789;BME280;19141;48.980;8.410;2023-08-31T05:08:41;99842.75;;;13.79;100.00
32789;BME280;19141;48.980;8.410;2023-08-31T05:11:06;99857.41;;;13.83;100.00
32789;BME280;19141;48.980;8.410;2023-08-31T05:13:32;99862.34;;;13.86;100.00
32789;BME280;19141;48.980;8.410;2023-08-31T05:15:57;99865.22;;;13.84;100.00
32789;BME280;19141;48.980;8.410;2023-08-31T05:18:23;99863.56;;;13.83;100.00
32789;BME280;19141;48.980;8.410;2023-08-31T05:20:48;99870.97;;;13.88;100.00
32789;BME280;19141;48.980;8.410;2023-08-31T05:23:14;99881.69;;;13.88;100.00
32789;BME280;19141;48.980;8.410;2023-08-31T05:25:46;99883.38;;;13.89;100.00
32789;BME280;19141;48.980;8.410;2023-08-31T05:28:11;99889.53;;;13.90;100.00
32789;BME280;19141;48.980;8.410;2023-08-31T05:30:45;99885.19;;;13.89;100.00
32789;BME280;19141;48.980;8.410;2023-08-31T05:33:11;99895.72;;;13.90;100.00
32789;BME280;19141;48.980;8.410;2023-08-31T05:35:36;99894.06;;;13.89;100.00
32789;BME280;19141;48.980;8.410;2023-08-31T05:38:02;99892.00;;;13.91;100.00
32789;BME280;19141;48.980;8.410;2023-08-31T05:40:28;99895.91;;;13.95;100.00
32789;BME280;19141;48.980;8.410;2023-08-31T05:42:53;99900.25;;;13.96;100.00
32789;BME280;19141;48.980;8.410;2023-08-31T05:45:19;99899.00;;;13.99;100.00
32789;BME280;19141;48.980;8.410;2023-08-31T05:47:44;99899.00;;;13.99;100.00
32789;BME280;19141;48.980;8.410;2023-08-31T05:50:10;99899.84;;;13.99;100.00
32789;BME280;19141;48.980;8.410;2023-08-31T05:52:35;99894.91;;;14.03;100.00
32789;BME280;19141;48.980;8.410;2023-08-31T05:55:00;99897.16;;;14.06;100.00
32789;BME280;19141;48.980;8.410;2023-08-31T05:57:26;99898.00;;;14.13;100.00
32789;BME280;19141;48.980;8.410;2023-08-31T05:59:53;99896.56;;;14.17;100.00
32789;BME280;19141;48.980;8.410;2023-08-31T06:02:18;99899.88;;;14.19;100.00
32789;BME280;19141;48.980;8.410;2023-08-31T06:04:43;99896.16;;;14.27;100.00
32789;BME280;19141;48.980;8.410;2023-08-31T06:07:09;99899.88;;;14.32;100.00
32789;BME280;19141;48.980;8.410;2023-08-31T06:09:34;99898.22;;;14.38;100.00
32789;BME280;19141;48.980;8.410;2023-08-31T06:12:00;99897.63;;;14.43;100.00
32789;BME280;19141;48.980;8.410;2023-08-31T06:14:25;99904.22;;;14.53;100.00
32789;BME280;19141;48.980;8.410;2023-08-31T06:16:51;99909.78;;;14.58;100.00
32789;BME280;19141;48.980;8.410;2023-08-31T06:19:17;99911.84;;;14.63;100.00
32789;BME280;19141;48.980;8.410;2023-08-31T06:21:43;99915.16;;;14.65;100.00
32789;BME280;19141;48.980;8.410;2023-08-31T06:24:08;99920.91;;;14.75;100.00
32789;BME280;19141;48.980;8.410;2023-08-31T06:26:38;99925.63;;;14.80;100.00
32789;BME280;19141;48.980;8.410;2023-08-31T06:29:04;99926.66;;;14.85;100.00
32789;BME280;19141;48.980;8.410;2023-08-31T06:31:29;99925.00;;;14.91;100.00
32789;BME280;19141;48.980;8.410;2023-08-31T06:33:54;99910.75;;;14.97;100.00
32789;BME280;19141;48.980;8.410;2023-08-31T06:36:20;99929.13;;;15.00;100.00
32789;BME280;19141;48.980;8.410;2023-08-31T06:38:46;99927.88;;;15.09;100.00
32789;BME280;19141;48.980;8.410;2023-08-31T06:41:11;99936.50;;;15.18;100.00
32789;BME280;19141;48.980;8.410;2023-08-31T06:43:36;99929.69;;;15.22;100.00
32789;BME280;19141;48.980;8.410;2023-08-31T06:46:02;99935.03;;;15.29;100.00
32789;BME280;19141;48.980;8.410;2023-08-31T06:48:27;99941.22;;;15.29;100.00
32789;BME280;19141;48.980;8.410;2023-08-31T06:50:53;99937.91;;;15.34;100.00
32789;BME280;19141;48.980;8.410;2023-08-31T06:53:18;99937.94;;;15.27;100.00
32789;BME280;19141;48.980;8.410;2023-08-31T06:55:44;99943.69;;;15.31;100.00
32789;BME280;19141;48.980;8.410;2023-08-31T06:58:09;99941.81;;;15.31;100.00
32789;BME280;19141;48.980;8.410;2023-08-31T07:00:35;99942.47;;;15.33;100.00
32789;BME280;19141;48.980;8.410;2023-08-31T07:03:00;99939.94;;;15.38;100.00
32789;BME280;19141;48.980;8.410;2023-08-31T07:05:26;99947.38;;;15.36;100.00
32789;BME280;19141;48.980;8.410;2023-08-31T07:07:54;99958.31;;;15.41;100.00
32789;BME280;19141;48.980;8.410;2023-08-31T07:10:21;99950.03;;;15.43;100.00
32789;BME280;19141;48.980;8.410;2023-08-31T07:12:46;99960.38;;;15.46;100.00
32789;BME280;19141;48.980;8.410;2023-08-31T07:15:12;99965.53;;;15.47;100.00
32789;BME280;19141;48.980;8.410;2023-08-31T07:17:37;99966.72;;;15.52;100.00
32789;BME280;19141;48.980;8.410;2023-08-31T07:20:03;99961.34;;;15.58;100.00
32789;BME280;19141;48.980;8.410;2023-08-31T07:22:34;99956.00;;;15.52;100.00
32789;BME280;19141;48.980;8.410;2023-08-31T07:24:59;99963.84;;;15.60;100.00
32789;BME280;19141;48.980;8.410;2023-08-31T07:27:25;99958.25;;;15.68;100.00
32789;BME280;19141;48.980;8.410;2023-08-31T07:29:50;99964.63;;;15.73;100.00
32789;BME280;19141;48.980;8.410;2023-08-31T07:32:16;99963.81;;;15.73;100.00
32789;BME280;19141;48.980;8.410;2023-08-31T07:34:41;99976.19;;;15.74;100.00
32789;BME280;19141;48.980;8.410;2023-08-31T07:37:07;99965.84;;;15.78;100.00
32789;BME280;19141;48.980;8.410;2023-08-31T07:39:32;99969.94;;;15.87;100.00
32789;BME280;19141;48.980;8.410;2023-08-31T07:41:58;99971.34;;;15.89;100.00
32789;BME280;19141;48.980;8.410;2023-08-31T07:44:24;99972.78;;;15.98;100.00
32789;BME280;19141;48.980;8.410;2023-08-31T07:46:50;99979.97;;;16.05;100.00
32789;BME280;19141;48.980;8.410;2023-08-31T07:49:15;99989.63;;;16.12;100.00
32789;BME280;19141;48.980;8.410;2023-08-31T07:51:41;99994.16;;;16.18;100.00
32789;BME280;19141;48.980;8.410;2023-08-31T07:54:06;99992.66;;;16.22;100.00
32789;BME280;19141;48.980;8.410;2023-08-31T07:56:32;99996.31;;;16.35;100.00
32789;BME280;19141;48.980;8.410;2023-08-31T07:58:57;99992.38;;;16.37;100.00
32789;BME280;19141;48.980;8.410;2023-08-31T08:01:23;99993.59;;;16.41;100.00
32789;BME280;19141;48.980;8.410;2023-08-31T08:03:49;99998.69;;;16.49;100.00
32789;BME280;19141;48.980;8.410;2023-08-31T08:06:14;100005.63;;;16.64;100.00
32789;BME280;19141;48.980;8.410;2023-08-31T08:08:39;100001.22;;;16.76;99.67
32789;BME280;19141;48.980;8.410;2023-08-31T08:11:05;100004.47;;;16.85;100.00
32789;BME280;19141;48.980;8.410;2023-08-31T08:13:30;100011.25;;;16.87;96.35
32789;BME280;19141;48.980;8.410;2023-08-31T08:15:56;100007.91;;;16.92;94.37
32789;BME280;19141;48.980;8.410;2023-08-31T08:18:21;100000.59;;;16.99;97.37
32789;BME280;19141;48.980;8.410;2023-08-31T08:20:47;99996.81;;;17.06;94.58
32789;BME280;19141;48.980;8.410;2023-08-31T08:23:13;100005.72;;;17.25;90.55
32789;BME280;19141;48.980;8.410;2023-08-31T08:25:38;100004.34;;;17.41;92.48
32789;BME280;19141;48.980;8.410;2023-08-31T08:28:04;100010.75;;;17.58;88.54
32789;BME280;19141;48.980;8.410;2023-08-31T08:30:29;100011.75;;;17.64;85.96
32789;BME280;19141;48.980;8.410;2023-08-31T08:32:55;100021.41;;;17.72;88.32
32789;BME280;19141;48.980;8.410;2023-08-31T08:35:20;100017.59;;;17.79;87.73
32789;BME280;19141;48.980;8.410;2023-08-31T08:37:45;100019.97;;;17.69;80.19
32789;BME280;19141;48.980;8.410;2023-08-31T08:40:11;100029.19;;;17.80;81.86
32789;BME280;19141;48.980;8.410;2023-08-31T08:42:40;100016.75;;;17.79;78.44
32789;BME280;19141;48.980;8.410;2023-08-31T08:45:09;100022.59;;;17.94;73.80
32789;BME280;19141;48.980;8.410;2023-08-31T08:47:38;100018.22;;;18.11;74.63
32789;BME280;19141;48.980;8.410;2023-08-31T08:50:05;100021.31;;;17.97;72.70
32789;BME280;19141;48.980;8.410;2023-08-31T08:52:31;100019.59;;;18.02;75.30
32789;BME280;19141;48.980;8.410;2023-08-31T08:54:57;100025.34;;;18.06;77.73
32789;BME280;19141;48.980;8.410;2023-08-31T08:57:22;100028.09;;;18.17;73.84
32789;BME280;19141;48.980;8.410;2023-08-31T08:59:48;100018.03;;;18.25;68.48
32789;BME280;19141;48.980;8.410;2023-08-31T09:02:13;100025.22;;;18.31;75.06
32789;BME280;19141;48.980;8.410;2023-08-31T09:04:39;100030.97;;;18.34;74.36
32789;BME280;19141;48.980;8.410;2023-08-31T09:07:04;100033.25;;;18.49;72.32
32789;BME280;19141;48.980;8.410;2023-08-31T09:09:30;100035.81;;;18.44;70.20
32789;BME280;19141;48.980;8.410;2023-08-31T09:11:55;100029.63;;;18.55;71.83
32789;BME280;19141;48.980;8.410;2023-08-31T09:14:21;100033.44;;;18.78;65.89
32789;BME280;19141;48.980;8.410;2023-08-31T09:16:48;100029.81;;;18.84;67.53
32789;BME280;19141;48.980;8.410;2023-08-31T09:19:24;100027.38;;;18.94;69.31
32789;BME280;19141;48.980;8.410;2023-08-31T09:21:51;100036.22;;;19.13;73.66
32789;BME280;19141;48.980;8.410;2023-08-31T09:24:17;100033.75;;;19.11;68.14
32789;BME280;19141;48.980;8.410;2023-08-31T09:26:47;100038.22;;;19.17;70.04
32789;BME280;19141;48.980;8.410;2023-08-31T09:29:13;100021.88;;;19.01;66.84
32789;BME280;19141;48.980;8.410;2023-08-31T09:31:43;100031.63;;;19.13;73.78
32789;BME280;19141;48.980;8.410;2023-08-31T09:34:09;100025.06;;;19.33;65.89
32789;BME280;19141;48.980;8.410;2023-08-31T09:36:36;100026.94;;;19.44;66.14
32789;BME280;19141;48.980;8.410;2023-08-31T09:39:01;100027.84;;;19.73;69.80
32789;BME280;19141;48.980;8.410;2023-08-31T09:41:27;100031.44;;;19.90;65.70
32789;BME280;19141;48.980;8.410;2023-08-31T09:43:52;100019.03;;;20.06;63.56
32789;BME280;19141;48.980;8.410;2023-08-31T09:46:18;100033.41;;;19.95;61.51
32789;BME280;19141;48.980;8.410;2023-08-31T09:48:45;100027.28;;;19.71;60.09
32789;BME280;19141;48.980;8.410;2023-08-31T09:51:14;100032.19;;;19.74;61.84
32789;BME280;19141;48.980;8.410;2023-08-31T09:53:41;100023.09;;;19.92;62.34
32789;BME280;19141;48.980;8.410;2023-08-31T09:56:07;100031.16;;;20.03;63.07
32789;BME280;19141;48.980;8.410;2023-08-31T09:58:33;100026.75;;;20.14;60.59
32789;BME280;19141;48.980;8.410;2023-08-31T10:00:59;100029.78;;;20.58;60.96
32789;BME280;19141;48.980;8.410;2023-08-31T10:03:26;100033.16;;;20.99;59.99
32789;BME280;19141;48.980;8.410;2023-08-31T10:05:52;100013.16;;;21.00;55.09
32789;BME280;19141;48.980;8.410;2023-08-31T10:08:19;100021.84;;;21.02;57.17
32789;BME280;19141;48.980;8.410;2023-08-31T10:10:45;100022.38;;;21.37;54.11
32789;BME280;19141;48.980;8.410;2023-08-31T10:13:11;100026.34;;;21.30;52.05
32789;BME280;19141;48.980;8.410;2023-08-31T10:15:37;100016.47;;;21.24;53.68
32789;BME280;19141;48.980;8.410;2023-08-31T10:18:04;100027.22;;;21.19;54.24
32789;BME280;19141;48.980;8.410;2023-08-31T10:20:31;100026.00;;;21.09;53.75
32789;BME280;19141;48.980;8.410;2023-08-31T10:22:58;100031.50;;;20.98;53.35
32789;BME280;19141;48.980;8.410;2023-08-31T10:25:23;100020.03;;;20.74;53.63
32789;BME280;19141;48.980;8.410;2023-08-31T10:27:49;100017.03;;;20.42;55.77
32789;BME280;19141;48.980;8.410;2023-08-31T10:32:46;100030.59;;;20.58;55.74
32789;BME280;19141;48.980;8.410;2023-08-31T10:35:12;100049.84;;;20.45;55.61
32789;BME280;19141;48.980;8.410;2023-08-31T10:37:40;100042.06;;;20.49;53.79
32789;BME280;19141;48.980;8.410;2023-08-31T10:40:09;100033.84;;;20.15;53.79
32789;BME280;19141;48.980;8.410;2023-08-31T10:42:44;100034.56;;;20.11;54.88
32789;BME280;19141;48.980;8.410;2023-08-31T10:45:10;100028.06;;;19.83;56.69
32789;BME280;19141;48.980;8.410;2023-08-31T10:47:40;100035.16;;;20.01;56.44
32789;BME280;19141;48.980;8.410;2023-08-31T10:50:16;100036.13;;;19.95;56.69
32789;BME280;19141;48.980;8.410;2023-08-31T10:52:45;100026.69;;;20.09;54.51
32789;BME280;19141;48.980;8.410;2023-08-31T10:55:13;100027.31;;;20.28;53.17
32789;BME280;19141;48.980;8.410;2023-08-31T10:57:40;100025.13;;;20.70;51.63
32789;BME280;19141;48.980;8.410;2023-08-31T11:00:07;100027.66;;;21.27;52.88
32789;BME280;19141;48.980;8.410;2023-08-31T11:02:43;100013.72;;;22.01;50.72
32789;BME280;19141;48.980;8.410;2023-08-31T11:05:16;100018.47;;;22.65;53.40
32789;BME280;19141;48.980;8.410;2023-08-31T11:07:46;100008.50;;;23.08;47.96
32789;BME280;19141;48.980;8.410;2023-08-31T11:10:13;100007.22;;;23.20;46.36
32789;BME280;19141;48.980;8.410;2023-08-31T11:12:40;100006.00;;;23.01;49.65
32789;BME280;19141;48.980;8.410;2023-08-31T11:15:07;100020.72;;;23.05;50.22
32789;BME280;19141;48.980;8.410;2023-08-31T11:17:33;100016.34;;;22.72;48.34
32789;BME280;19141;48.980;8.410;2023-08-31T11:19:59;100030.09;;;22.33;50.56
32789;BME280;19141;48.980;8.410;2023-08-31T11:22:25;100023.69;;;21.95;50.29
32789;BME280;19141;48.980;8.410;2023-08-31T11:24:51;100020.66;;;22.14;49.45
32789;BME280;19141;48.980;8.410;2023-08-31T11:27:20;100013.59;;;22.13;48.42
32789;BME280;19141;48.980;8.410;2023-08-31T11:29:46;100008.75;;;22.15;49.10
32789;BME280;19141;48.980;8.410;2023-08-31T11:32:11;100007.28;;;22.07;49.60
32789;BME280;19141;48.980;8.410;2023-08-31T11:34:44;100008.34;;;22.06;47.98
32789;BME280;19141;48.980;8.410;2023-08-31T11:37:13;100005.69;;;22.33;48.82
32789;BME280;19141;48.980;8.410;2023-08-31T11:39:51;99990.25;;;22.98;46.63
32789;BME280;19141;48.980;8.410;2023-08-31T11:42:19;99998.56;;;23.71;44.49
32789;BME280;19141;48.980;8.410;2023-08-31T11:44:46;100002.38;;;23.70;43.76
32789;BME280;19141;48.980;8.410;2023-08-31T11:47:13;99993.00;;;23.08;45.88
32789;BME280;19141;48.980;8.410;2023-08-31T11:49:41;100006.34;;;23.57;45.62
32789;BME280;19141;48.980;8.410;2023-08-31T11:52:09;99983.75;;;24.24;46.00
32789;BME280;19141;48.980;8.410;2023-08-31T11:54:42;99989.53;;;24.89;43.27
32789;BME280;19141;48.980;8.410;2023-08-31T11:57:09;99996.34;;;24.41;44.22
32789;BME280;19141;48.980;8.410;2023-08-31T11:59:36;99973.84;;;23.82;46.68
32789;BME280;19141;48.980;8.410;2023-08-31T12:02:05;99983.91;;;23.82;44.78
32789;BME280;19141;48.980;8.410;2023-08-31T12:04:31;99989.63;;;23.28;47.36
32789;BME280;19141;48.980;8.410;2023-08-31T12:07:03;99985.59;;;22.93;46.36
32789;BME280;19141;48.980;8.410;2023-08-31T12:09:31;99992.81;;;22.51;47.43
32789;BME280;19141;48.980;8.410;2023-08-31T12:11:57;99988.66;;;22.70;47.38
32789;BME280;19141;48.980;8.410;2023-08-31T12:14:24;99983.25;;;23.54;47.26
32789;BME280;19141;48.980;8.410;2023-08-31T12:16:51;99986.88;;;23.23;45.31
32789;BME280;19141;48.980;8.410;2023-08-31T12:19:17;99983.34;;;23.22;45.60
32789;BME280;19141;48.980;8.410;2023-08-31T12:21:45;99970.00;;;23.21;45.99
32789;BME280;19141;48.980;8.410;2023-08-31T12:24:11;99976.78;;;23.18;46.42
32789;BME280;19141;48.980;8.410;2023-08-31T12:26:37;99983.34;;;23.27;44.66
32789;BME280;19141;48.980;8.410;2023-08-31T12:29:03;99986.31;;;23.21;44.01
32789;BME280;19141;48.980;8.410;2023-08-31T12:31:32;99978.03;;;23.43;43.13
32789;BME280;19141;48.980;8.410;2023-08-31T12:33:59;99982.03;;;23.88;42.93
32789;BME280;19141;48.980;8.410;2023-08-31T12:36:28;99982.81;;;23.78;43.78
32789;BME280;19141;48.980;8.410;2023-08-31T12:38:53;99987.84;;;23.07;43.67
32789;BME280;19141;48.980;8.410;2023-08-31T12:41:19;99987.84;;;23.07;43.80
32789;BME280;19141;48.980;8.410;2023-08-31T12:43:45;99985.84;;;22.92;44.37
32789;BME280;19141;48.980;8.410;2023-08-31T12:46:10;99991.53;;;22.58;45.24
32789;BME280;19141;48.980;8.410;2023-08-31T12:48:39;99990.66;;;21.99;46.14
32789;BME280;19141;48.980;8.410;2023-08-31T12:51:04;99979.38;;;21.63;48.09
32789;BME280;19141;48.980;8.410;2023-08-31T12:53:29;99982.25;;;21.34;48.76
32789;BME280;19141;48.980;8.410;2023-08-31T12:55:55;99983.78;;;20.92;49.44
32789;BME280;19141;48.980;8.410;2023-08-31T12:58:20;99984.75;;;20.85;49.97
32789;BME280;19141;48.980;8.410;2023-08-31T13:00:47;99987.97;;;20.82;52.24
32789;BME280;19141;48.980;8.410;2023-08-31T13:03:14;99988.78;;;20.66;52.98
32789;BME280;19141;48.980;8.410;2023-08-31T13:05:40;99989.69;;;20.55;52.37
32789;BME280;19141;48.980;8.410;2023-08-31T13:08:07;99992.72;;;20.75;52.90
32789;BME280;19141;48.980;8.410;2023-08-31T13:10:34;99986.16;;;20.71;52.15
32789;BME280;19141;48.980;8.410;2023-08-31T13:12:59;99987.22;;;20.87;51.64
32789;BME280;19141;48.980;8.410;2023-08-31T13:15:25;99987.06;;;20.77;51.46
32789;BME280;19141;48.980;8.410;2023-08-31T13:17:51;99984.91;;;20.79;51.98
32789;BME280;19141;48.980;8.410;2023-08-31T13:20:16;99982.16;;;20.74;53.32
32789;BME280;19141;48.980;8.410;2023-08-31T13:22:42;99993.06;;;20.62;54.06
32789;BME280;19141;48.980;8.410;2023-08-31T13:25:07;99985.19;;;20.61;54.04
32789;BME280;19141;48.980;8.410;2023-08-31T13:27:33;99990.50;;;20.55;54.33
32789;BME280;19141;48.980;8.410;2023-08-31T13:29:58;99991.81;;;20.53;55.38
32789;BME280;19141;48.980;8.410;2023-08-31T13:32:24;99991.00;;;20.41;54.71
32789;BME280;19141;48.980;8.410;2023-08-31T13:34:49;99988.59;;;20.27;54.59
32789;BME280;19141;48.980;8.410;2023-08-31T13:37:15;99981.72;;;20.20;55.00
32789;BME280;19141;48.980;8.410;2023-08-31T13:39:40;99975.53;;;20.08;54.86
32789;BME280;19141;48.980;8.410;2023-08-31T13:42:06;99981.41;;;20.16;55.36
32789;BME280;19141;48.980;8.410;2023-08-31T13:44:32;99986.72;;;20.11;55.01
32789;BME280;19141;48.980;8.410;2023-08-31T13:46:57;99983.78;;;20.01;55.61
32789;BME280;19141;48.980;8.410;2023-08-31T13:49:23;99983.91;;;20.06;56.76
32789;BME280;19141;48.980;8.410;2023-08-31T13:51:48;99986.13;;;20.09;57.90
32789;BME280;19141;48.980;8.410;2023-08-31T13:54:14;99982.16;;;20.00;55.75
32789;BME280;19141;48.980;8.410;2023-08-31T13:56:39;99987.13;;;19.91;56.57
32789;BME280;19141;48.980;8.410;2023-08-31T13:59:04;99980.88;;;20.02;56.42
32789;BME280;19141;48.980;8.410;2023-08-31T14:01:30;99982.84;;;20.07;57.71
32789;BME280;19141;48.980;8.410;2023-08-31T14:03:56;99982.94;;;20.12;58.41
32789;BME280;19141;48.980;8.410;2023-08-31T14:06:21;99978.84;;;20.10;56.88
32789;BME280;19141;48.980;8.410;2023-08-31T14:08:46;99981.75;;;20.08;57.88
32789;BME280;19141;48.980;8.410;2023-08-31T14:11:13;99975.47;;;20.02;58.14
32789;BME280;19141;48.980;8.410;2023-08-31T14:13:38;99971.06;;;20.13;59.25
32789;BME280;19141;48.980;8.410;2023-08-31T14:16:04;99971.56;;;20.10;58.11
32789;BME280;19141;48.980;8.410;2023-08-31T14:18:29;99977.38;;;20.19;56.24
32789;BME280;19141;48.980;8.410;2023-08-31T14:20:57;99978.66;;;20.28;56.58
32789;BME280;19141;48.980;8.410;2023-08-31T14:23:24;99967.16;;;20.38;57.78
32789;BME280;19141;48.980;8.410;2023-08-31T14:25:49;99971.47;;;20.50;58.21
32789;BME280;19141;48.980;8.410;2023-08-31T14:28:15;99973.28;;;20.62;55.84
32789;BME280;19141;48.980;8.410;2023-08-31T14:30:40;99973.78;;;20.75;54.84
32789;BME280;19141;48.980;8.410;2023-08-31T14:33:05;99972.63;;;20.88;57.23
32789;BME280;19141;48.980;8.410;2023-08-31T14:35:31;99975.16;;;20.95;56.32
32789;BME280;19141;48.980;8.410;2023-08-31T14:37:57;99975.56;;;21.03;56.75
32789;BME280;19141;48.980;8.410;2023-08-31T14:40:23;99975.56;;;21.03;59.86
32789;BME280;19141;48.980;8.410;2023-08-31T14:42:49;99982.13;;;21.07;59.53
32789;BME280;19141;48.980;8.410;2023-08-31T14:45:14;99986.78;;;21.12;58.21
32789;BME280;19141;48.980;8.410;2023-08-31T14:47:40;99991.50;;;21.00;62.08
32789;BME280;19141;48.980;8.410;2023-08-31T14:50:05;99988.09;;;20.93;60.33
32789;BME280;19141;48.980;8.410;2023-08-31T14:52:31;99993.88;;;20.63;59.08
32789;BME280;19141;48.980;8.410;2023-08-31T14:54:56;99995.56;;;20.52;57.60
32789;BME280;19141;48.980;8.410;2023-08-31T14:57:22;99994.72;;;20.35;59.55
32789;BME280;19141;48.980;8.410;2023-08-31T14:59:47;99989.47;;;20.28;59.68
32789;BME280;19141;48.980;8.410;2023-08-31T15:02:13;99989.16;;;20.13;59.93
32789;BME280;19141;48.980;8.410;2023-08-31T15:04:40;99997.91;;;20.03;60.70
32789;BME280;19141;48.980;8.410;2023-08-31T15:07:05;100004.97;;;20.04;60.56
32789;BME280;19141;48.980;8.410;2023-08-31T15:09:31;100006.72;;;19.98;60.60
32789;BME280;19141;48.980;8.410;2023-08-31T15:11:56;100003.94;;;19.93;59.86
32789;BME280;19141;48.980;8.410;2023-08-31T15:14:21;99998.66;;;19.87;61.47
32789;BME280;19141;48.980;8.410;2023-08-31T15:16:47;99995.84;;;19.82;62.11
32789;BME280;19141;48.980;8.410;2023-08-31T15:19:12;99997.53;;;19.83;61.55
32789;BME280;19141;48.980;8.410;2023-08-31T15:21:38;99995.28;;;19.79;62.17
32789;BME280;19141;48.980;8.410;2023-08-31T15:24:03;99998.69;;;19.75;62.53
32789;BME280;19141;48.980;8.410;2023-08-31T15:26:29;99994.03;;;19.70;63.34
32789;BME280;19141;48.980;8.410;2023-08-31T15:28:54;99985.53;;;19.78;62.99
32789;BME280;19141;48.980;8.410;2023-08-31T15:31:20;99984.00;;;19.83;63.80
32789;BME280;19141;48.980;8.410;2023-08-31T15:33:45;99977.19;;;19.80;62.94
32789;BME280;19141;48.980;8.410;2023-08-31T15:36:10;99976.91;;;19.93;62.82
32789;BME280;19141;48.980;8.410;2023-08-31T15:38:37;99979.06;;;20.08;63.58
32789;BME280;19141;48.980;8.410;2023-08-31T15:41:05;99971.81;;;20.25;63.29
32789;BME280;19141;48.980;8.410;2023-08-31T15:43:32;99979.53;;;20.33;63.16
32789;BME280;19141;48.980;8.410;2023-08-31T15:46:01;99985.38;;;20.42;62.85
32789;BME280;19141;48.980;8.410;2023-08-31T15:48:27;99988.47;;;20.34;62.04
32789;BME280;19141;48.980;8.410;2023-08-31T15:50:57;99991.09;;;20.29;62.25
32789;BME280;19141;48.980;8.410;2023-08-31T15:53:24;99992.88;;;20.23;62.06
32789;BME280;19141;48.980;8.410;2023-08-31T15:55:50;99992.22;;;20.16;60.95
32789;BME280;19141;48.980;8.410;2023-08-31T15:58:16;99998.91;;;20.14;62.62
32789;BME280;19141;48.980;8.410;2023-08-31T16:00:41;99999.78;;;20.02;62.17
32789;BME280;19141;48.980;8.410;2023-08-31T16:03:07;100004.75;;;19.94;62.47
32789;BME280;19141;48.980;8.410;2023-08-31T16:05:34;100006.78;;;19.87;61.18
32789;BME280;19141;48.980;8.410;2023-08-31T16:08:00;100002.91;;;19.83;61.64
32789;BME280;19141;48.980;8.410;2023-08-31T16:10:26;99994.25;;;19.69;62.59
32789;BME280;19141;48.980;8.410;2023-08-31T16:12:53;99995.56;;;19.66;64.40
32789;BME280;19141;48.980;8.410;2023-08-31T16:15:18;100004.03;;;19.58;64.70
32789;BME280;19141;48.980;8.410;2023-08-31T16:17:43;99994.59;;;19.49;66.01
32789;BME280;19141;48.980;8.410;2023-08-31T16:20:09;100006.72;;;19.46;65.45
32789;BME280;19141;48.980;8.410;2023-08-31T16:22:39;100004.03;;;19.35;67.59
32789;BME280;19141;48.980;8.410;2023-08-31T16:25:05;100001.69;;;19.27;68.29
32789;BME280;19141;48.980;8.410;2023-08-31T16:27:31;100008.59;;;19.22;68.68
32789;BME280;19141;48.980;8.410;2023-08-31T16:29:57;100007.56;;;19.12;67.72
32789;BME280;19141;48.980;8.410;2023-08-31T16:32:22;100014.50;;;19.19;67.26
32789;BME280;19141;48.980;8.410;2023-08-31T16:34:52;100005.56;;;19.07;67.95
32789;BME280;19141;48.980;8.410;2023-08-31T16:37:20;100008.50;;;19.06;68.55
32789;BME280;19141;48.980;8.410;2023-08-31T16:39:46;100008.75;;;19.04;68.61
32789;BME280;19141;48.980;8.410;2023-08-31T16:42:12;100006.06;;;19.04;68.45
32789;BME280;19141;48.980;8.410;2023-08-31T16:44:39;100006.75;;;19.00;69.00
32789;BME280;19141;48.980;8.410;2023-08-31T16:47:04;100007.44;;;18.95;69.13
32789;BME280;19141;48.980;8.410;2023-08-31T16:49:30;100003.78;;;18.89;70.61
32789;BME280;19141;48.980;8.410;2023-08-31T16:51:56;100003.78;;;18.89;70.59
32789;BME280;19141;48.980;8.410;2023-08-31T16:54:22;100003.44;;;18.86;69.69
32789;BME280;19141;48.980;8.410;2023-08-31T16:56:47;100000.16;;;18.84;70.53
32789;BME280;19141;48.980;8.410;2023-08-31T16:59:14;100004.72;;;18.83;71.19
32789;BME280;19141;48.980;8.410;2023-08-31T17:01:39;100005.44;;;18.79;71.98
32789;BME280;19141;48.980;8.410;2023-08-31T17:04:04;100004.84;;;18.77;71.54
32789;BME280;19141;48.980;8.410;2023-08-31T17:06:30;100002.94;;;18.77;72.05
32789;BME280;19141;48.980;8.410;2023-08-31T17:08:57;100002.84;;;18.72;72.83
32789;BME280;19141;48.980;8.410;2023-08-31T17:11:22;100004.59;;;18.66;74.52